Time;durP1;ratioP1;P1;durP2;ratioP2;P2;SDS_P1;SDS_P2;PMS_P1;PMS_P2;Temp;Humidity;BMP_temperature;BMP_pressure;BME280_temperature;BME280_humidity;BME280_pressure;Samples;Min_cycle;Max_cycle;Signal;HPM_P1;HPM_P2
2021/03/11 00:00:09;;;;;;;41.88;22.77;;;;;;;;;;4983392;28;20165;-71
2021/03/11 00:02:35;;;;;;;37.20;22.92;;;;;;;;;;4987663;28;20041;-71
2021/03/11 00:05:01;;;;;;;40.63;22.85;;;;;;;;;;4988139;28;20101;-71
2021/03/11 00:07:27;;;;;;;39.33;23.80;;;;;;;;;;4987616;28;20054;-72
2021/03/11 00:09:53;;;;;;;43.15;23.15;;;;;;;;;;4988304;28;20058;-71
2021/03/11 00:12:19;;;;;;;39.67;23.48;;;;;;;;;;4989069;28;20026;-71
2021/03/11 00:14:45;;;;;;;42.53;24.95;;;;;;;;;;4989048;28;20039;-71
2021/03/11 00:17:11;;;;;;;45.00;24.98;;;;;;;;;;4988591;28;20033;-71
2021/03/11 00:19:37;;;;;;;41.15;24.52;;;;;;;;;;4990529;28;20121;-71
2021/03/11 00:22:03;;;;;;;45.47;24.33;;;;;;;;;;4988568;28;20043;-71
2021/03/11 00:24:29;;;;;;;49.45;25.77;;;;;;;;;;4982205;28;20030;-71
2021/03/11 00:26:55;;;;;;;46.15;24.83;;;;;;;;;;4982124;28;20547;-71
2021/03/11 00:29:21;;;;;;;44.45;25.50;;;;;;;;;;4987935;28;20034;-71
2021/03/11 00:31:47;;;;;;;50.28;26.48;;;;;;;;;;4988132;28;20038;-71
2021/03/11 00:34:13;;;;;;;48.55;24.73;;;;;;;;;;4986413;28;20037;-71
2021/03/11 00:36:39;;;;;;;49.65;26.48;;;;;;;;;;4987289;28;20030;-71
2021/03/11 00:39:06;;;;;;;45.25;24.67;;;;;;;;;;4987874;28;20038;-71
2021/03/11 00:41:32;;;;;;;45.55;23.88;;;;;;;;;;4986805;28;20026;-71
2021/03/11 00:43:57;;;;;;;45.10;25.98;;;;;;;;;;4988069;28;20030;-72
2021/03/11 00:46:23;;;;;;;54.05;27.35;;;;;;;;;;4986461;28;20037;-71
2021/03/11 00:48:49;;;;;;;44.00;23.83;;;;;;;;;;4978148;28;20424;-71
2021/03/11 00:51:16;;;;;;;48.13;25.05;;;;;;;;;;4984563;28;20543;-71
2021/03/11 00:53:41;;;;;;;48.15;25.17;;;;;;;;;;4986360;28;20038;-72
2021/03/11 00:56:07;;;;;;;42.72;24.38;;;;;;;;;;4987856;28;20443;-72
2021/03/11 00:58:33;;;;;;;41.35;23.38;;;;;;;;;;4988037;28;20034;-71
2021/03/11 01:00:59;;;;;;;44.45;24.15;;;;;;;;;;4988285;28;20530;-71
2021/03/11 01:03:26;;;;;;;40.58;21.67;;;;;;;;;;4988301;28;20039;-71
2021/03/11 01:05:52;;;;;;;47.83;26.38;;;;;;;;;;4988093;28;20163;-72
2021/03/11 01:08:18;;;;;;;40.25;23.05;;;;;;;;;;4987506;28;20034;-72
2021/03/11 01:10:44;;;;;;;46.53;25.42;;;;;;;;;;4987843;28;20027;-71
2021/03/11 01:13:10;;;;;;;44.17;24.17;;;;;;;;;;4988179;28;20080;-72
2021/03/11 01:15:37;;;;;;;43.92;23.80;;;;;;;;;;4987746;28;20034;-71
2021/03/11 01:18:05;;;;;;;41.00;24.27;;;;;;;;;;4988702;28;20072;-71
2021/03/11 01:20:30;;;;;;;37.90;22.30;;;;;;;;;;4991245;28;20085;-72
2021/03/11 01:22:56;;;;;;;42.15;25.45;;;;;;;;;;4991045;28;20108;-72
2021/03/11 01:25:22;;;;;;;47.95;25.27;;;;;;;;;;4991543;28;20033;-72
2021/03/11 01:27:48;;;;;;;37.33;22.70;;;;;;;;;;4992178;28;20034;-72
2021/03/11 01:30:15;;;;;;;39.60;24.27;;;;;;;;;;4991669;28;20031;-72
2021/03/11 01:32:41;;;;;;;38.53;22.92;;;;;;;;;;4991531;28;20034;-72
2021/03/11 01:35:08;;;;;;;43.30;23.55;;;;;;;;;;4991999;28;20535;-72
2021/03/11 01:37:33;;;;;;;44.88;25.25;;;;;;;;;;4991960;28;20450;-71
2021/03/11 01:39:59;;;;;;;45.25;25.52;;;;;;;;;;4991387;28;20403;-72
2021/03/11 01:42:25;;;;;;;38.80;23.25;;;;;;;;;;4992023;28;20030;-72
2021/03/11 01:44:51;;;;;;;44.55;25.15;;;;;;;;;;4991519;28;20033;-71
2021/03/11 01:47:17;;;;;;;46.03;25.58;;;;;;;;;;4992208;28;20109;-72
2021/03/11 01:49:43;;;;;;;42.67;25.83;;;;;;;;;;4989656;28;20057;-72
2021/03/11 01:52:09;;;;;;;48.17;25.98;;;;;;;;;;4990266;28;20041;-71
2021/03/11 01:54:36;;;;;;;43.88;24.23;;;;;;;;;;4990989;28;20230;-71
2021/03/11 01:57:02;;;;;;;43.58;24.92;;;;;;;;;;4990040;28;20065;-72
2021/03/11 01:59:28;;;;;;;39.17;23.90;;;;;;;;;;4991450;28;20034;-71
2021/03/11 02:01:57;;;;;;;48.60;24.77;;;;;;;;;;4989549;28;20496;-72
2021/03/11 02:04:23;;;;;;;45.83;24.90;;;;;;;;;;4991589;28;20061;-71
2021/03/11 02:06:50;;;;;;;48.40;26.38;;;;;;;;;;4990927;28;20035;-71
2021/03/11 02:09:16;;;;;;;39.65;24.70;;;;;;;;;;4990917;28;20126;-71
2021/03/11 02:11:46;;;;;;;43.80;25.02;;;;;;;;;;4991022;28;20143;-71
2021/03/11 02:14:16;;;;;;;44.30;27.08;;;;;;;;;;4990299;28;20026;-71
2021/03/11 02:16:55;;;;;;;42.97;24.15;;;;;;;;;;4990942;28;20035;-71
2021/03/11 02:19:39;;;;;;;44.75;25.38;;;;;;;;;;4989126;28;20069;-72
2021/03/11 02:22:11;;;;;;;45.90;26.52;;;;;;;;;;4990556;28;20488;-71
2021/03/11 02:24:43;;;;;;;45.50;24.98;;;;;;;;;;4990727;28;20387;-71
2021/03/11 02:27:28;;;;;;;39.50;23.73;;;;;;;;;;4990399;28;20480;-72
2021/03/11 02:29:55;;;;;;;44.15;26.13;;;;;;;;;;4990881;28;20432;-72
2021/03/11 02:32:21;;;;;;;41.85;25.95;;;;;;;;;;4990150;28;20058;-71
2021/03/11 02:34:58;;;;;;;42.92;25.42;;;;;;;;;;4992121;28;20080;-71
2021/03/11 02:37:27;;;;;;;37.08;22.55;;;;;;;;;;4990086;28;20038;-71
2021/03/11 02:39:55;;;;;;;41.28;24.77;;;;;;;;;;4990035;28;20037;-71
2021/03/11 02:42:22;;;;;;;40.15;23.88;;;;;;;;;;4989189;28;20106;-71
2021/03/11 02:44:49;;;;;;;36.25;22.95;;;;;;;;;;4976556;28;20022;-72
2021/03/11 02:47:14;;;;;;;39.03;24.42;;;;;;;;;;4996585;28;20515;-71
2021/03/11 02:49:41;;;;;;;36.78;21.77;;;;;;;;;;5011315;28;20018;-72
2021/03/11 02:52:07;;;;;;;34.28;21.52;;;;;;;;;;5003081;28;20026;-71
2021/03/11 02:54:34;;;;;;;37.63;23.05;;;;;;;;;;4988830;28;20485;-71
2021/03/11 02:57:01;;;;;;;35.92;22.13;;;;;;;;;;4989978;28;20019;-72
2021/03/11 02:59:28;;;;;;;42.42;23.42;;;;;;;;;;4990098;28;20038;-71
2021/03/11 03:01:54;;;;;;;37.33;21.80;;;;;;;;;;4990364;28;20096;-71
2021/03/11 03:04:20;;;;;;;35.53;20.98;;;;;;;;;;4990040;28;20025;-71
2021/03/11 03:06:46;;;;;;;40.88;23.35;;;;;;;;;;4989976;28;20032;-71
2021/03/11 03:09:13;;;;;;;36.75;22.80;;;;;;;;;;4990319;28;20052;-71
2021/03/11 03:11:39;;;;;;;38.97;21.98;;;;;;;;;;4989914;28;20453;-71
2021/03/11 03:14:06;;;;;;;36.45;20.70;;;;;;;;;;4982320;28;20046;-71
2021/03/11 03:16:32;;;;;;;35.90;22.05;;;;;;;;;;4988632;28;20334;-71
2021/03/11 03:18:59;;;;;;;37.97;21.50;;;;;;;;;;4989107;28;20030;-70
2021/03/11 03:21:25;;;;;;;36.45;20.58;;;;;;;;;;4981131;28;20023;-71
2021/03/11 03:23:51;;;;;;;34.13;20.55;;;;;;;;;;4989702;28;20038;-71
2021/03/11 03:26:18;;;;;;;33.28;20.40;;;;;;;;;;4989828;28;20063;-71
2021/03/11 03:28:44;;;;;;;35.35;20.40;;;;;;;;;;4987707;28;20049;-71
2021/03/11 03:31:11;;;;;;;31.23;18.75;;;;;;;;;;4987952;28;20046;-71
2021/03/11 03:33:37;;;;;;;28.63;18.10;;;;;;;;;;4989584;28;20030;-70
2021/03/11 03:36:03;;;;;;;30.75;19.67;;;;;;;;;;4988709;28;20404;-71
2021/03/11 03:38:29;;;;;;;27.73;18.40;;;;;;;;;;4988170;28;20035;-71
2021/03/11 03:40:59;;;;;;;29.20;17.98;;;;;;;;;;4990478;28;20037;-71
2021/03/11 03:43:26;;;;;;;25.38;15.77;;;;;;;;;;4989037;28;20026;-71
2021/03/11 03:46:07;;;;;;;29.52;18.13;;;;;;;;;;4988829;28;20062;-71
2021/03/11 03:48:38;;;;;;;25.33;16.08;;;;;;;;;;4987558;28;20093;-71
2021/03/11 03:51:04;;;;;;;27.98;16.55;;;;;;;;;;4989263;28;20357;-71
2021/03/11 03:53:34;;;;;;;27.10;16.13;;;;;;;;;;4988799;28;20026;-71
2021/03/11 03:56:00;;;;;;;;;;;;;;;;;;4989358;28;20448;-71
2021/03/11 03:58:28;;;;;;;24.95;14.57;;;;;;;;;;4986696;28;19949;-71
2021/03/11 04:00:55;;;;;;;24.35;15.15;;;;;;;;;;4986644;28;20062;-71
2021/03/11 04:03:21;;;;;;;25.48;14.65;;;;;;;;;;4988759;28;20035;-71
2021/03/11 04:05:48;;;;;;;24.02;14.43;;;;;;;;;;4988396;28;20389;-71
2021/03/11 04:08:15;;;;;;;24.50;15.05;;;;;;;;;;4989297;28;20029;-71
2021/03/11 04:10:42;;;;;;;25.40;14.93;;;;;;;;;;4988205;28;20037;-71
2021/03/11 04:13:08;;;;;;;23.35;13.55;;;;;;;;;;4975166;28;20022;-71
2021/03/11 04:15:34;;;;;;;21.98;13.52;;;;;;;;;;4976645;28;20405;-71
2021/03/11 04:18:00;;;;;;;22.33;14.02;;;;;;;;;;4986976;28;20033;-71
2021/03/11 04:20:27;;;;;;;19.42;13.55;;;;;;;;;;4988524;28;20034;-72
2021/03/11 04:22:54;;;;;;;22.77;13.60;;;;;;;;;;4987836;28;20058;-71
2021/03/11 04:25:20;;;;;;;25.95;13.73;;;;;;;;;;4988975;28;20029;-71
2021/03/11 04:27:46;;;;;;;24.25;13.85;;;;;;;;;;4988734;28;20034;-71
2021/03/11 04:30:12;;;;;;;21.90;12.85;;;;;;;;;;4987742;28;20026;-73
2021/03/11 04:32:38;;;;;;;20.27;12.25;;;;;;;;;;4988597;28;20046;-70
2021/03/11 04:35:07;;;;;;;22.63;12.82;;;;;;;;;;4988658;28;20038;-71
2021/03/11 04:37:34;;;;;;;23.63;13.40;;;;;;;;;;5007231;28;20034;-71
2021/03/11 04:40:00;;;;;;;21.73;13.73;;;;;;;;;;5007074;28;20031;-71
2021/03/11 04:42:26;;;;;;;22.88;13.82;;;;;;;;;;4988878;28;20420;-74
2021/03/11 04:44:52;;;;;;;27.38;14.95;;;;;;;;;;4998031;28;20481;-71
2021/03/11 04:47:18;;;;;;;27.63;15.13;;;;;;;;;;4986764;28;20060;-72
2021/03/11 04:49:45;;;;;;;29.17;16.02;;;;;;;;;;4995768;28;20030;-72
2021/03/11 04:52:11;;;;;;;23.90;14.15;;;;;;;;;;4988192;28;20113;-71
2021/03/11 04:54:37;;;;;;;22.55;14.98;;;;;;;;;;4988174;28;20049;-72
2021/03/11 04:57:03;;;;;;;27.27;14.38;;;;;;;;;;4986721;28;20504;-71
2021/03/11 04:59:30;;;;;;;26.33;14.07;;;;;;;;;;4988166;28;20110;-71
2021/03/11 05:01:58;;;;;;;26.73;14.80;;;;;;;;;;4985952;28;20126;-71
2021/03/11 05:04:24;;;;;;;22.25;13.00;;;;;;;;;;4986820;28;20105;-71
2021/03/11 05:06:50;;;;;;;22.95;14.88;;;;;;;;;;4988339;28;20550;-72
2021/03/11 05:09:16;;;;;;;23.30;13.57;;;;;;;;;;4987502;28;20057;-72
2021/03/11 05:11:43;;;;;;;22.67;12.77;;;;;;;;;;4986936;28;20258;-71
2021/03/11 05:14:09;;;;;;;23.33;13.65;;;;;;;;;;4987871;28;20030;-72
2021/03/11 05:16:35;;;;;;;23.77;12.52;;;;;;;;;;4988225;28;20030;-72
2021/03/11 05:19:01;;;;;;;22.25;14.18;;;;;;;;;;4986395;28;20480;-73
2021/03/11 05:21:27;;;;;;;20.55;13.10;;;;;;;;;;4987818;28;20019;-72
2021/03/11 05:23:54;;;;;;;25.27;13.32;;;;;;;;;;4987967;28;20049;-73
2021/03/11 05:26:20;;;;;;;19.83;13.00;;;;;;;;;;4985768;28;20515;-72
2021/03/11 05:28:46;;;;;;;22.65;12.73;;;;;;;;;;4988182;28;20026;-71
2021/03/11 05:31:12;;;;;;;19.58;11.07;;;;;;;;;;4975301;28;20035;-72
2021/03/11 05:33:38;;;;;;;22.83;11.38;;;;;;;;;;4986832;28;20034;-71
2021/03/11 05:36:04;;;;;;;19.80;11.30;;;;;;;;;;4988060;28;20117;-73
2021/03/11 05:38:30;;;;;;;20.02;10.90;;;;;;;;;;4984882;28;20053;-72
2021/03/11 05:40:56;;;;;;;18.27;10.43;;;;;;;;;;4976778;28;20480;-72
2021/03/11 05:43:22;;;;;;;17.30;10.75;;;;;;;;;;4986952;28;20033;-73
2021/03/11 05:45:48;;;;;;;18.67;10.63;;;;;;;;;;4987804;28;20031;-72
2021/03/11 05:48:15;;;;;;;18.50;9.65;;;;;;;;;;4988156;28;20030;-72
2021/03/11 05:50:42;;;;;;;20.25;10.35;;;;;;;;;;4975987;28;20416;-71
2021/03/11 05:53:10;;;;;;;16.75;10.13;;;;;;;;;;4986682;28;20464;-72
2021/03/11 05:55:37;;;;;;;16.58;8.98;;;;;;;;;;4986858;28;20030;-72
2021/03/11 05:58:03;;;;;;;18.48;8.82;;;;;;;;;;4987951;28;20101;-71
2021/03/11 06:00:29;;;;;;;17.65;10.38;;;;;;;;;;4987473;28;20030;-72
2021/03/11 06:03:00;;;;;;;21.13;10.45;;;;;;;;;;4987653;28;20089;-72
2021/03/11 06:05:26;;;;;;;24.17;8.90;;;;;;;;;;4986530;28;20374;-74
2021/03/11 06:07:52;;;;;;;15.45;7.63;;;;;;;;;;4990782;28;20026;-72
2021/03/11 06:10:19;;;;;;;20.60;7.47;;;;;;;;;;4989890;28;20062;-73
2021/03/11 06:12:46;;;;;;;17.00;7.20;;;;;;;;;;4990750;28;20048;-72
2021/03/11 06:15:14;;;;;;;15.25;7.10;;;;;;;;;;4991546;28;20034;-73
2021/03/11 06:17:41;;;;;;;17.63;5.93;;;;;;;;;;4989420;28;20030;-72
2021/03/11 06:20:08;;;;;;;19.80;6.15;;;;;;;;;;4991417;28;20509;-72
2021/03/11 06:22:34;;;;;;;15.40;5.55;;;;;;;;;;4990834;28;20038;-72
2021/03/11 06:25:00;;;;;;;17.92;5.38;;;;;;;;;;5005316;28;20050;-73
2021/03/11 06:27:26;;;;;;;14.88;4.45;;;;;;;;;;4989679;28;20049;-73
2021/03/11 06:29:52;;;;;;;18.92;5.13;;;;;;;;;;4989318;28;20023;-73
2021/03/11 06:32:18;;;;;;;12.73;4.72;;;;;;;;;;4990858;28;20048;-73
2021/03/11 06:34:44;;;;;;;12.25;4.85;;;;;;;;;;4989547;28;20064;-72
2021/03/11 06:37:11;;;;;;;15.43;4.32;;;;;;;;;;4976952;28;20495;-72
2021/03/11 06:39:38;;;;;;;17.83;4.18;;;;;;;;;;4989216;28;20061;-72
2021/03/11 06:42:05;;;;;;;18.65;5.65;;;;;;;;;;4990257;28;20093;-73
2021/03/11 06:44:33;;;;;;;29.83;6.45;;;;;;;;;;4990968;28;20439;-72
2021/03/11 06:47:01;;;;;;;30.08;5.75;;;;;;;;;;4989954;28;20034;-72
2021/03/11 06:49:27;;;;;;;29.73;5.90;;;;;;;;;;4991895;28;20034;-73
2021/03/11 06:52:12;;;;;;;42.70;6.93;;;;;;;;;;4989798;28;20038;-74
2021/03/11 06:54:51;;;;;;;47.95;8.57;;;;;;;;;;4991573;28;20110;-72
2021/03/11 06:57:31;;;;;;;34.23;6.20;;;;;;;;;;4990187;28;20081;-72
2021/03/11 06:59:57;;;;;;;32.78;7.25;;;;;;;;;;4989806;28;20030;-72
2021/03/11 07:02:24;;;;;;;46.55;9.93;;;;;;;;;;4989622;28;20559;-72
2021/03/11 07:04:50;;;;;;;41.47;6.82;;;;;;;;;;4989519;28;20034;-74
2021/03/11 07:07:20;;;;;;;38.38;7.03;;;;;;;;;;4989185;28;20033;-72
2021/03/11 07:09:47;;;;;;;33.28;7.50;;;;;;;;;;4992287;28;20105;-71
2021/03/11 07:12:13;;;;;;;46.72;9.25;;;;;;;;;;4998719;28;20105;-72
2021/03/11 07:14:38;;;;;;;42.58;7.50;;;;;;;;;;4992280;28;20101;-73
2021/03/11 07:17:21;;;;;;;46.72;8.73;;;;;;;;;;4990750;28;20034;-73
2021/03/11 07:20:06;;;;;;;42.22;9.07;;;;;;;;;;4985974;28;20026;-73
2021/03/11 07:22:32;;;;;;;41.95;9.10;;;;;;;;;;4993732;28;20031;-74
2021/03/11 07:24:58;;;;;;;36.78;8.02;;;;;;;;;;4988837;28;20097;-73
2021/03/11 07:27:24;;;;;;;53.20;9.45;;;;;;;;;;4988770;28;20244;-73
2021/03/11 07:30:04;;;;;;;38.15;7.68;;;;;;;;;;4994491;28;20030;-73
2021/03/11 07:32:31;;;;;;;34.10;7.03;;;;;;;;;;4992964;28;20096;-73
2021/03/11 07:34:57;;;;;;;42.28;7.47;;;;;;;;;;4988421;28;20030;-72
2021/03/11 07:37:24;;;;;;;43.60;6.95;;;;;;;;;;4990223;28;20033;-73
2021/03/11 07:39:54;;;;;;;32.30;6.78;;;;;;;;;;4987668;28;20508;-72
2021/03/11 07:42:20;;;;;;;37.90;6.83;;;;;;;;;;4989764;28;20137;-73
2021/03/11 07:44:46;;;;;;;44.83;8.30;;;;;;;;;;4992443;28;20030;-73
2021/03/11 07:47:12;;;;;;;40.67;7.97;;;;;;;;;;5001653;28;20490;-74
2021/03/11 07:49:39;;;;;;;39.28;8.13;;;;;;;;;;5005032;28;20030;-73
2021/03/11 07:52:07;;;;;;;41.17;7.72;;;;;;;;;;4989946;28;20030;-73
2021/03/11 07:54:33;;;;;;;48.08;9.85;;;;;;;;;;4988841;28;20027;-73
2021/03/11 07:56:59;;;;;;;41.20;7.40;;;;;;;;;;4990879;28;20043;-73
2021/03/11 07:59:25;;;;;;;38.85;8.88;;;;;;;;;;4988135;28;20022;-73
2021/03/11 08:01:54;;;;;;;46.55;8.88;;;;;;;;;;4988608;28;20106;-72
2021/03/11 08:04:21;;;;;;;39.25;8.77;;;;;;;;;;4988816;28;20042;-73
2021/03/11 08:06:48;;;;;;;38.28;7.30;;;;;;;;;;4988576;28;20062;-73
2021/03/11 08:09:33;;;;;;;46.85;9.10;;;;;;;;;;4988876;28;20232;-73
2021/03/11 08:12:19;;;;;;;37.15;7.90;;;;;;;;;;4989190;28;20093;-72
2021/03/11 08:14:45;;;;;;;35.22;7.22;;;;;;;;;;5001114;28;20030;-72
2021/03/11 08:17:30;;;;;;;42.15;7.95;;;;;;;;;;4988395;28;20033;-72
2021/03/11 08:19:56;;;;;;;45.13;8.43;;;;;;;;;;4988394;28;20041;-72
2021/03/11 08:22:42;;;;;;;55.80;8.98;;;;;;;;;;4988445;28;20027;-72
2021/03/11 08:25:28;;;;;;;48.95;7.90;;;;;;;;;;4988198;28;20026;-72
2021/03/11 08:27:54;;;;;;;48.13;9.10;;;;;;;;;;4988086;28;20026;-72
2021/03/11 08:30:41;;;;;;;41.83;9.00;;;;;;;;;;4988237;28;20420;-72
2021/03/11 08:33:07;;;;;;;43.88;8.52;;;;;;;;;;4983165;28;20078;-72
2021/03/11 08:35:34;;;;;;;39.17;9.23;;;;;;;;;;4980364;28;20026;-72
2021/03/11 08:38:00;;;;;;;44.67;8.18;;;;;;;;;;4987747;28;20105;-72
2021/03/11 08:40:42;;;;;;;43.40;9.80;;;;;;;;;;4988519;28;20983;-72
2021/03/11 08:43:09;;;;;;;42.53;9.98;;;;;;;;;;4982816;28;20058;-72
2021/03/11 08:45:35;;;;;;;33.92;9.35;;;;;;;;;;4994482;28;20046;-73
2021/03/11 08:48:11;;;;;;;40.90;9.30;;;;;;;;;;4988089;28;20076;-72
2021/03/11 08:50:37;;;;;;;33.97;8.02;;;;;;;;;;4987443;28;20030;-72
2021/03/11 08:53:03;;;;;;;48.70;10.02;;;;;;;;;;4987461;28;20045;-72
2021/03/11 08:55:39;;;;;;;36.08;8.07;;;;;;;;;;4973772;28;20030;-71
2021/03/11 08:58:23;;;;;;;45.97;9.35;;;;;;;;;;4995009;28;20026;-71
2021/03/11 09:00:55;;;;;;;31.67;7.30;;;;;;;;;;4988519;28;20026;-71
2021/03/11 09:03:37;;;;;;;46.33;9.43;;;;;;;;;;4980093;28;20687;-71
2021/03/11 09:06:03;;;;;;;37.97;6.82;;;;;;;;;;4983945;28;20053;-72
2021/03/11 09:08:29;;;;;;;51.75;10.55;;;;;;;;;;4985863;28;20096;-72
2021/03/11 09:11:09;;;;;;;54.70;10.05;;;;;;;;;;4987247;28;20088;-71
2021/03/11 09:13:35;;;;;;;54.20;9.32;;;;;;;;;;4987107;28;20030;-72
2021/03/11 09:16:01;;;;;;;30.70;7.50;;;;;;;;;;4987429;28;20050;-72
2021/03/11 09:18:29;;;;;;;53.25;11.05;;;;;;;;;;4987075;28;20054;-71
2021/03/11 09:20:55;;;;;;;51.22;9.68;;;;;;;;;;4985918;28;20447;-72
2021/03/11 09:23:32;;;;;;;42.50;8.45;;;;;;;;;;4987529;28;20031;-71
2021/03/11 09:25:58;;;;;;;38.22;8.57;;;;;;;;;;4986130;28;20080;-72
2021/03/11 09:28:24;;;;;;;45.08;9.32;;;;;;;;;;4987009;28;20733;-72
2021/03/11 09:30:50;;;;;;;47.58;9.10;;;;;;;;;;4987213;28;20039;-72
2021/03/11 09:33:22;;;;;;;47.60;8.50;;;;;;;;;;4987104;28;20030;-73
2021/03/11 09:35:52;;;;;;;46.38;8.48;;;;;;;;;;4987119;28;20113;-72
2021/03/11 09:38:19;;;;;;;39.97;7.90;;;;;;;;;;4987678;28;20030;-72
2021/03/11 09:40:46;;;;;;;37.75;8.43;;;;;;;;;;4988100;28;20034;-73
2021/03/11 09:43:25;;;;;;;45.88;7.90;;;;;;;;;;4991492;28;20234;-71
2021/03/11 09:46:02;;;;;;;46.47;8.07;;;;;;;;;;4990024;28;20385;-73
2021/03/11 09:48:32;;;;;;;44.45;9.63;;;;;;;;;;4989674;28;20310;-72
2021/03/11 09:50:59;;;;;;;53.15;9.93;;;;;;;;;;4989769;28;20031;-72
2021/03/11 09:53:31;;;;;;;41.38;9.18;;;;;;;;;;4986919;28;20040;-72
2021/03/11 09:55:57;;;;;;;45.65;8.13;;;;;;;;;;4990780;28;20058;-73
2021/03/11 09:58:23;;;;;;;43.17;8.82;;;;;;;;;;4990805;28;20073;-72
2021/03/11 10:00:49;;;;;;;48.03;10.50;;;;;;;;;;4990799;28;20180;-72
2021/03/11 10:03:16;;;;;;;49.97;8.80;;;;;;;;;;4990886;28;20241;-72
2021/03/11 10:05:43;;;;;;;51.88;9.32;;;;;;;;;;4991172;28;20069;-72
2021/03/11 10:08:09;;;;;;;50.40;11.27;;;;;;;;;;4989754;28;20479;-71
2021/03/11 10:10:35;;;;;;;40.65;10.02;;;;;;;;;;4990882;28;20054;-72
2021/03/11 10:13:01;;;;;;;51.03;9.02;;;;;;;;;;4989483;28;20034;-72
2021/03/11 10:15:27;;;;;;;50.67;9.27;;;;;;;;;;4989001;28;20173;-71
2021/03/11 10:18:09;;;;;;;50.10;8.00;;;;;;;;;;4989192;28;20062;-71
2021/03/11 10:20:36;;;;;;;50.63;11.38;;;;;;;;;;4990133;28;20030;-71
2021/03/11 10:23:18;;;;;;;42.55;9.20;;;;;;;;;;4988907;28;20037;-73
2021/03/11 10:25:44;;;;;;;47.55;8.52;;;;;;;;;;4979764;28;20026;-72
2021/03/11 10:28:14;;;;;;;48.33;10.35;;;;;;;;;;4985949;28;20034;-72
2021/03/11 10:30:40;;;;;;;44.65;8.35;;;;;;;;;;4990631;28;20135;-71
2021/03/11 10:33:06;;;;;;;60.10;9.50;;;;;;;;;;5000602;28;20030;-70
2021/03/11 10:35:33;;;;;;;51.28;9.68;;;;;;;;;;4990716;28;20503;-72
2021/03/11 10:38:16;;;;;;;51.75;10.73;;;;;;;;;;4990217;28;20034;-71
2021/03/11 10:40:42;;;;;;;50.90;9.80;;;;;;;;;;4989208;28;20030;-72
2021/03/11 10:43:20;;;;;;;48.72;9.20;;;;;;;;;;4989790;28;20032;-72
2021/03/11 10:45:46;;;;;;;46.80;8.85;;;;;;;;;;4990144;28;20031;-72
2021/03/11 10:48:13;;;;;;;37.42;10.23;;;;;;;;;;4989806;28;20112;-71
2021/03/11 10:50:40;;;;;;;45.30;9.02;;;;;;;;;;4989856;28;20031;-74
2021/03/11 10:53:06;;;;;;;58.45;10.02;;;;;;;;;;4989481;28;20038;-72
2021/03/11 10:55:36;;;;;;;47.10;8.90;;;;;;;;;;4989049;28;20097;-72
2021/03/11 10:58:03;;;;;;;41.05;9.23;;;;;;;;;;4994292;28;20425;-72
2021/03/11 11:00:31;;;;;;;53.65;9.27;;;;;;;;;;4988177;28;20034;-72
2021/03/11 11:02:58;;;;;;;50.67;9.20;;;;;;;;;;4989865;28;20026;-73
2021/03/11 11:05:24;;;;;;;48.28;11.52;;;;;;;;;;4999453;28;20432;-73
2021/03/11 11:07:51;;;;;;;40.63;8.55;;;;;;;;;;4989792;28;20027;-73
2021/03/11 11:10:18;;;;;;;51.83;9.85;;;;;;;;;;4990423;28;20451;-73
2021/03/11 11:12:44;;;;;;;38.55;8.27;;;;;;;;;;4989897;28;20039;-74
2021/03/11 11:15:11;;;;;;;47.58;9.63;;;;;;;;;;4989456;28;20109;-72
2021/03/11 11:17:37;;;;;;;47.28;8.23;;;;;;;;;;4987804;28;20030;-71
2021/03/11 11:20:04;;;;;;;44.10;8.45;;;;;;;;;;4989508;28;20570;-71
2021/03/11 11:22:31;;;;;;;42.78;7.85;;;;;;;;;;4992443;28;20489;-71
2021/03/11 11:24:57;;;;;;;46.83;8.75;;;;;;;;;;4986782;28;20137;-71
2021/03/11 11:27:23;;;;;;;56.80;10.63;;;;;;;;;;4989374;28;20051;-71
2021/03/11 11:29:49;;;;;;;40.47;8.05;;;;;;;;;;4988950;28;20038;-71
2021/03/11 11:32:15;;;;;;;38.22;7.15;;;;;;;;;;4991541;28;20026;-71
2021/03/11 11:34:41;;;;;;;51.67;9.48;;;;;;;;;;4987525;28;20243;-72
2021/03/11 11:37:07;;;;;;;44.65;9.13;;;;;;;;;;4993048;28;20026;-71
2021/03/11 11:39:33;;;;;;;46.58;9.45;;;;;;;;;;4988343;28;20034;-73
2021/03/11 11:41:59;;;;;;;44.60;9.32;;;;;;;;;;4984899;28;20113;-71
2021/03/11 11:44:25;;;;;;;48.75;10.75;;;;;;;;;;4988215;28;20448;-72
2021/03/11 11:46:51;;;;;;;43.90;9.52;;;;;;;;;;4988394;28;20030;-71
2021/03/11 11:49:17;;;;;;;52.33;10.48;;;;;;;;;;4988591;28;20523;-72
2021/03/11 11:51:43;;;;;;;45.28;9.27;;;;;;;;;;4986872;28;20026;-72
2021/03/11 11:54:09;;;;;;;45.90;7.95;;;;;;;;;;4988126;28;20349;-72
2021/03/11 11:56:35;;;;;;;52.22;8.93;;;;;;;;;;4988785;28;20026;-71
2021/03/11 11:59:01;;;;;;;36.83;8.50;;;;;;;;;;4990945;28;20539;-72
2021/03/11 12:01:27;;;;;;;40.92;8.77;;;;;;;;;;4985852;28;20038;-73
2021/03/11 12:03:53;;;;;;;44.88;9.88;;;;;;;;;;4986337;28;20113;-73
2021/03/11 12:06:19;;;;;;;46.05;9.27;;;;;;;;;;4988757;28;20026;-72
2021/03/11 12:08:45;;;;;;;47.15;8.07;;;;;;;;;;4987236;28;20023;-72
2021/03/11 12:11:11;;;;;;;44.85;7.90;;;;;;;;;;4988086;28;20066;-72
2021/03/11 12:13:37;;;;;;;52.38;10.32;;;;;;;;;;4989418;28;20149;-73
2021/03/11 12:16:03;;;;;;;40.80;8.82;;;;;;;;;;4986584;28;20026;-74
2021/03/11 12:18:29;;;;;;;38.95;8.35;;;;;;;;;;4989635;28;20061;-69
2021/03/11 12:20:55;;;;;;;43.65;8.65;;;;;;;;;;4988101;28;20061;-73
2021/03/11 12:23:21;;;;;;;53.38;7.88;;;;;;;;;;4987603;28;20053;-73
2021/03/11 12:25:47;;;;;;;39.72;8.88;;;;;;;;;;4989484;28;20023;-74
2021/03/11 12:28:13;;;;;;;34.67;7.90;;;;;;;;;;4988020;28;20032;-72
2021/03/11 12:30:39;;;;;;;40.45;6.85;;;;;;;;;;4988960;28;20053;-72
2021/03/11 12:33:05;;;;;;;34.97;7.65;;;;;;;;;;4988450;28;20054;-73
2021/03/11 12:35:31;;;;;;;40.00;7.97;;;;;;;;;;4988389;28;20030;-72
2021/03/11 12:37:58;;;;;;;34.30;9.05;;;;;;;;;;4987642;28;20110;-72
2021/03/11 12:40:24;;;;;;;31.52;6.53;;;;;;;;;;4986763;28;20460;-73
2021/03/11 12:42:50;;;;;;;46.85;9.45;;;;;;;;;;4988010;28;20026;-71
2021/03/11 12:45:20;;;;;;;33.65;8.73;;;;;;;;;;4987959;28;20693;-72
2021/03/11 12:47:47;;;;;;;41.13;8.18;;;;;;;;;;4987266;28;20040;-72
2021/03/11 12:50:13;;;;;;;46.42;8.73;;;;;;;;;;4985737;28;20030;-73
2021/03/11 12:52:39;;;;;;;48.17;9.32;;;;;;;;;;4987912;28;20034;-72
2021/03/11 12:55:06;;;;;;;44.35;8.77;;;;;;;;;;4986672;28;20393;-72
2021/03/11 12:57:32;;;;;;;39.45;8.10;;;;;;;;;;4988659;28;20035;-73
2021/03/11 12:59:58;;;;;;;40.90;8.98;;;;;;;;;;4987684;28;20491;-72
2021/03/11 13:02:24;;;;;;;40.50;7.05;;;;;;;;;;4987608;28;20538;-72
2021/03/11 13:04:50;;;;;;;40.17;7.43;;;;;;;;;;5002854;28;20049;-72
2021/03/11 13:07:16;;;;;;;34.83;5.88;;;;;;;;;;4987765;28;20516;-72
2021/03/11 13:09:42;;;;;;;37.47;7.88;;;;;;;;;;4988187;28;20030;-72
2021/03/11 13:12:08;;;;;;;41.83;8.02;;;;;;;;;;5002321;28;20467;-71
2021/03/11 13:14:34;;;;;;;48.13;8.73;;;;;;;;;;4987884;28;20042;-71
2021/03/11 13:17:00;;;;;;;38.03;8.18;;;;;;;;;;4990654;28;20489;-72
2021/03/11 13:19:26;;;;;;;39.20;7.40;;;;;;;;;;4992401;28;20045;-72
2021/03/11 13:21:52;;;;;;;42.30;7.28;;;;;;;;;;4990526;28;20026;-71
2021/03/11 13:24:18;;;;;;;40.67;7.60;;;;;;;;;;4988711;28;20073;-72
2021/03/11 13:26:44;;;;;;;45.35;8.02;;;;;;;;;;4988418;28;20022;-72
2021/03/11 13:29:10;;;;;;;40.38;8.80;;;;;;;;;;4990778;28;20037;-72
2021/03/11 13:31:36;;;;;;;42.65;7.72;;;;;;;;;;4987682;28;20046;-73
2021/03/11 13:34:03;;;;;;;35.85;6.15;;;;;;;;;;4982604;28;20134;-72
2021/03/11 13:36:29;;;;;;;24.83;5.28;;;;;;;;;;4991134;28;20038;-72
2021/03/11 13:38:55;;;;;;;28.00;6.00;;;;;;;;;;4991289;28;20022;-72
2021/03/11 13:41:22;;;;;;;14.98;4.00;;;;;;;;;;4991367;28;20037;-72
2021/03/11 13:43:48;;;;;;;15.52;2.88;;;;;;;;;;4989796;28;20030;-73
2021/03/11 13:46:14;;;;;;;9.05;2.78;;;;;;;;;;4989643;28;20040;-72
2021/03/11 13:48:40;;;;;;;15.77;2.92;;;;;;;;;;4991244;28;20014;-72
2021/03/11 13:51:07;;;;;;;11.07;2.45;;;;;;;;;;4982880;28;20118;-72
2021/03/11 13:53:33;;;;;;;21.77;3.42;;;;;;;;;;4990990;28;20034;-72
2021/03/11 13:55:59;;;;;;;13.80;2.92;;;;;;;;;;4981738;28;20045;-72
2021/03/11 13:58:25;;;;;;;28.40;4.78;;;;;;;;;;4990216;28;20023;-72
2021/03/11 14:00:52;;;;;;;34.22;6.68;;;;;;;;;;4990627;28;20042;-72
2021/03/11 14:03:18;;;;;;;36.70;7.35;;;;;;;;;;4990671;28;20018;-72
2021/03/11 14:05:44;;;;;;;42.25;8.55;;;;;;;;;;4990254;28;20034;-74
2021/03/11 14:08:10;;;;;;;51.58;9.27;;;;;;;;;;4990212;28;20396;-72
2021/03/11 14:10:36;;;;;;;43.72;7.68;;;;;;;;;;5001814;28;20516;-73
2021/03/11 14:13:02;;;;;;;40.50;7.75;;;;;;;;;;5002547;28;20050;-73
2021/03/11 14:15:29;;;;;;;41.97;6.70;;;;;;;;;;4983113;28;20034;-73
2021/03/11 14:17:55;;;;;;;45.63;7.25;;;;;;;;;;4984622;28;20531;-73
2021/03/11 14:20:21;;;;;;;41.15;8.75;;;;;;;;;;4988645;28;20088;-73
2021/03/11 14:22:47;;;;;;;48.20;7.20;;;;;;;;;;4990464;28;20034;-73
2021/03/11 14:25:13;;;;;;;42.05;8.43;;;;;;;;;;4990949;28;20467;-73